Estación Meteorológica Peña el Pijo (Robertgarden) [ 02/03/23 03:50:50 CET ]

Fecha Hora Presion(HPa) Temp (°C) Humedad % Rocio (°C) Viento ( m/s) Direccion Lluvia 1Hora(mm) Lluvia 24H(mm) LLuvia Total(mm)
2010-Sep-01 01:01:14 1010.100 19.0 80 15.5         152.29
2010-Sep-01 02:01:22 1009.600 18.4 81 15.1         152.29
2010-Sep-01 03:01:14 1009.600 17.8 81 14.5         152.29
2010-Sep-01 04:01:16 1009.100 17.1 83 14.2         152.29
2010-Sep-01 05:01:16 1008.700 16.9 83 14.0         152.29
2010-Sep-01 06:01:19 1008.500 16.3 84 13.6         152.29
2010-Sep-01 07:01:15 1008.500 15.6 86 13.3         152.29
2010-Sep-01 08:01:17 1008.700 14.5 88 12.5         152.29
2010-Sep-01 09:01:14 1008.700 16.5 88 14.5         152.29
2010-Sep-01 10:01:13 1009.000 20.6 70 14.9         152.29
2010-Sep-01 11:01:20 1008.600 23.9 56 14.6         152.29
2010-Sep-01 12:01:14 1008.300 26.4 45 13.5         152.29
2010-Sep-01 13:01:16 1008.100 28.9 39 13.6         152.29
2010-Sep-01 14:01:15 1007.600 28.2 40 13.4         152.29
2010-Sep-01 15:01:17 1007.400 31.5 33 13.2         152.29
2010-Sep-01 16:01:16 1006.900 30.2 36 13.4         152.29
2010-Sep-01 17:01:34 1006.800 27.8 43 14.0         152.29
2010-Sep-01 18:01:40 1006.500 29.0 40 14.1         152.29
2010-Sep-01 19:01:39 1006.500 25.8 46 13.3         152.29
2010-Sep-01 20:01:31 1006.400 24.2 50 13.2         152.29
2010-Sep-01 21:01:19 1006.900 22.3 55 12.8         152.29
2010-Sep-01 22:01:17 1007.600 21.3 57 12.4         152.29
2010-Sep-01 23:01:14 1007.700 19.6 63 12.3         152.29

Temperatura Máxima:31°    Temperatura Mínima:14°
Presión Máxima:1010.100 Hpa    Presión Mínima:1006.400 Hpa


Volver